sensor_id;sensor_type;location;lat;lon;timestamp;P1;durP1;ratioP1;P2;durP2;ratioP2
48613;SDS011;34408;51.426;5.444;2023-05-02T00:01:26;24.67;;;17.15;;
48613;SDS011;34408;51.426;5.444;2023-05-02T00:03:55;27.50;;;18.40;;
48613;SDS011;34408;51.426;5.444;2023-05-02T00:06:23;25.77;;;17.73;;
48613;SDS011;34408;51.426;5.444;2023-05-02T00:08:51;26.17;;;17.65;;
48613;SDS011;34408;51.426;5.444;2023-05-02T00:11:19;25.83;;;17.73;;
48613;SDS011;34408;51.426;5.444;2023-05-02T00:13:48;23.85;;;16.65;;
48613;SDS011;34408;51.426;5.444;2023-05-02T00:16:15;25.95;;;16.92;;
48613;SDS011;34408;51.426;5.444;2023-05-02T00:18:44;26.48;;;16.70;;
48613;SDS011;34408;51.426;5.444;2023-05-02T00:21:13;26.92;;;16.40;;
48613;SDS011;34408;51.426;5.444;2023-05-02T00:23:41;25.83;;;16.50;;
48613;SDS011;34408;51.426;5.444;2023-05-02T00:26:09;27.73;;;16.95;;
48613;SDS011;34408;51.426;5.444;2023-05-02T00:28:36;26.27;;;15.80;;
48613;SDS011;34408;51.426;5.444;2023-05-02T00:31:05;24.15;;;14.60;;
48613;SDS011;34408;51.426;5.444;2023-05-02T00:33:33;22.83;;;15.23;;
48613;SDS011;34408;51.426;5.444;2023-05-02T00:36:01;22.17;;;15.70;;
48613;SDS011;34408;51.426;5.444;2023-05-02T00:38:30;23.10;;;15.30;;
48613;SDS011;34408;51.426;5.444;2023-05-02T00:40:57;23.65;;;15.50;;
48613;SDS011;34408;51.426;5.444;2023-05-02T00:43:25;25.95;;;14.75;;
48613;SDS011;34408;51.426;5.444;2023-05-02T00:45:56;23.48;;;14.30;;
48613;SDS011;34408;51.426;5.444;2023-05-02T00:48:24;21.38;;;14.38;;
48613;SDS011;34408;51.426;5.444;2023-05-02T00:50:53;23.35;;;14.60;;
48613;SDS011;34408;51.426;5.444;2023-05-02T00:53:22;20.45;;;13.48;;
48613;SDS011;34408;51.426;5.444;2023-05-02T00:55:51;23.08;;;15.18;;
48613;SDS011;34408;51.426;5.444;2023-05-02T00:58:19;20.92;;;13.15;;
48613;SDS011;34408;51.426;5.444;2023-05-02T01:00:53;20.17;;;12.85;;
48613;SDS011;34408;51.426;5.444;2023-05-02T01:03:31;22.02;;;13.40;;
48613;SDS011;34408;51.426;5.444;2023-05-02T01:06:24;19.70;;;12.75;;
48613;SDS011;34408;51.426;5.444;2023-05-02T01:09:11;22.67;;;12.32;;
48613;SDS011;34408;51.426;5.444;2023-05-02T01:11:55;19.27;;;12.52;;
48613;SDS011;34408;51.426;5.444;2023-05-02T01:14:29;17.98;;;12.05;;
48613;SDS011;34408;51.426;5.444;2023-05-02T01:17:01;18.13;;;11.60;;
48613;SDS011;34408;51.426;5.444;2023-05-02T01:19:34;21.52;;;11.10;;
48613;SDS011;34408;51.426;5.444;2023-05-02T01:22:04;16.02;;;11.45;;
48613;SDS011;34408;51.426;5.444;2023-05-02T01:24:36;20.00;;;10.75;;
48613;SDS011;34408;51.426;5.444;2023-05-02T01:27:13;14.60;;;10.75;;
48613;SDS011;34408;51.426;5.444;2023-05-02T01:29:48;14.93;;;10.15;;
48613;SDS011;34408;51.426;5.444;2023-05-02T01:32:17;15.25;;;10.27;;
48613;SDS011;34408;51.426;5.444;2023-05-02T01:34:48;15.63;;;10.23;;
48613;SDS011;34408;51.426;5.444;2023-05-02T01:37:19;14.70;;;9.70;;
48613;SDS011;34408;51.426;5.444;2023-05-02T01:39:50;15.60;;;8.43;;
48613;SDS011;34408;51.426;5.444;2023-05-02T01:42:20;13.70;;;8.13;;
48613;SDS011;34408;51.426;5.444;2023-05-02T01:44:51;13.80;;;8.38;;
48613;SDS011;34408;51.426;5.444;2023-05-02T01:47:21;14.20;;;7.97;;
48613;SDS011;34408;51.426;5.444;2023-05-02T01:49:50;14.85;;;8.00;;
48613;SDS011;34408;51.426;5.444;2023-05-02T01:52:18;11.82;;;7.22;;
48613;SDS011;34408;51.426;5.444;2023-05-02T01:54:49;11.45;;;7.30;;
48613;SDS011;34408;51.426;5.444;2023-05-02T01:57:20;12.90;;;7.90;;
48613;SDS011;34408;51.426;5.444;2023-05-02T01:59:48;10.50;;;6.97;;
48613;SDS011;34408;51.426;5.444;2023-05-02T02:02:18;11.38;;;6.63;;
48613;SDS011;34408;51.426;5.444;2023-05-02T02:04:48;9.20;;;6.55;;
48613;SDS011;34408;51.426;5.444;2023-05-02T02:07:19;9.60;;;6.25;;
48613;SDS011;34408;51.426;5.444;2023-05-02T02:09:47;9.88;;;5.78;;
48613;SDS011;34408;51.426;5.444;2023-05-02T02:12:16;8.88;;;5.80;;
48613;SDS011;34408;51.426;5.444;2023-05-02T02:14:55;9.43;;;6.03;;
48613;SDS011;34408;51.426;5.444;2023-05-02T02:17:24;9.25;;;6.07;;
48613;SDS011;34408;51.426;5.444;2023-05-02T02:19:56;9.77;;;5.28;;
48613;SDS011;34408;51.426;5.444;2023-05-02T02:22:29;11.57;;;7.07;;
48613;SDS011;34408;51.426;5.444;2023-05-02T02:25:02;9.95;;;6.03;;
48613;SDS011;34408;51.426;5.444;2023-05-02T02:27:31;10.77;;;7.13;;
48613;SDS011;34408;51.426;5.444;2023-05-02T02:30:01;9.75;;;6.80;;
48613;SDS011;34408;51.426;5.444;2023-05-02T02:32:29;12.70;;;6.65;;
48613;SDS011;34408;51.426;5.444;2023-05-02T02:34:57;13.70;;;7.50;;
48613;SDS011;34408;51.426;5.444;2023-05-02T02:37:28;10.07;;;6.55;;
48613;SDS011;34408;51.426;5.444;2023-05-02T02:39:59;14.35;;;7.90;;
48613;SDS011;34408;51.426;5.444;2023-05-02T02:42:35;13.23;;;7.95;;
48613;SDS011;34408;51.426;5.444;2023-05-02T02:45:16;12.88;;;7.35;;
48613;SDS011;34408;51.426;5.444;2023-05-02T02:47:53;11.20;;;7.85;;
48613;SDS011;34408;51.426;5.444;2023-05-02T02:50:30;15.45;;;8.68;;
48613;SDS011;34408;51.426;5.444;2023-05-02T02:52:59;12.45;;;7.75;;
48613;SDS011;34408;51.426;5.444;2023-05-02T02:55:35;15.10;;;8.02;;
48613;SDS011;34408;51.426;5.444;2023-05-02T02:58:12;13.13;;;8.73;;
48613;SDS011;34408;51.426;5.444;2023-05-02T03:00:47;12.00;;;7.82;;
48613;SDS011;34408;51.426;5.444;2023-05-02T03:03:16;11.63;;;7.82;;
48613;SDS011;34408;51.426;5.444;2023-05-02T03:05:46;9.77;;;6.95;;
48613;SDS011;34408;51.426;5.444;2023-05-02T03:08:15;15.68;;;8.50;;
48613;SDS011;34408;51.426;5.444;2023-05-02T03:10:43;12.75;;;8.30;;
48613;SDS011;34408;51.426;5.444;2023-05-02T03:13:10;14.30;;;8.13;;
48613;SDS011;34408;51.426;5.444;2023-05-02T03:15:48;12.68;;;8.25;;
48613;SDS011;34408;51.426;5.444;2023-05-02T03:18:45;13.43;;;7.60;;
48613;SDS011;34408;51.426;5.444;2023-05-02T03:21:13;11.07;;;7.65;;
48613;SDS011;34408;51.426;5.444;2023-05-02T03:23:41;14.13;;;8.35;;
48613;SDS011;34408;51.426;5.444;2023-05-02T03:26:08;10.65;;;7.00;;
48613;SDS011;34408;51.426;5.444;2023-05-02T03:28:36;11.13;;;6.55;;
48613;SDS011;34408;51.426;5.444;2023-05-02T03:31:06;10.43;;;7.18;;
48613;SDS011;34408;51.426;5.444;2023-05-02T03:33:33;10.35;;;7.47;;
48613;SDS011;34408;51.426;5.444;2023-05-02T03:36:01;10.68;;;6.43;;
48613;SDS011;34408;51.426;5.444;2023-05-02T03:38:29;18.02;;;7.38;;
48613;SDS011;34408;51.426;5.444;2023-05-02T03:40:57;14.93;;;7.68;;
48613;SDS011;34408;51.426;5.444;2023-05-02T03:43:25;11.35;;;6.97;;
48613;SDS011;34408;51.426;5.444;2023-05-02T03:45:53;13.18;;;6.72;;
48613;SDS011;34408;51.426;5.444;2023-05-02T03:48:22;10.15;;;6.38;;
48613;SDS011;34408;51.426;5.444;2023-05-02T03:50:50;10.95;;;6.20;;
48613;SDS011;34408;51.426;5.444;2023-05-02T03:53:18;12.73;;;6.35;;
48613;SDS011;34408;51.426;5.444;2023-05-02T03:55:45;13.15;;;6.55;;
48613;SDS011;34408;51.426;5.444;2023-05-02T03:58:13;11.32;;;6.32;;
48613;SDS011;34408;51.426;5.444;2023-05-02T04:00:42;12.10;;;5.60;;
48613;SDS011;34408;51.426;5.444;2023-05-02T04:03:09;13.32;;;6.53;;
48613;SDS011;34408;51.426;5.444;2023-05-02T04:05:39;14.50;;;5.85;;
48613;SDS011;34408;51.426;5.444;2023-05-02T04:08:06;10.68;;;5.65;;
48613;SDS011;34408;51.426;5.444;2023-05-02T04:10:35;12.52;;;6.45;;
48613;SDS011;34408;51.426;5.444;2023-05-02T04:13:02;13.50;;;6.43;;
48613;SDS011;34408;51.426;5.444;2023-05-02T04:15:30;12.15;;;5.70;;
48613;SDS011;34408;51.426;5.444;2023-05-02T04:17:58;13.25;;;5.68;;
48613;SDS011;34408;51.426;5.444;2023-05-02T04:20:27;8.85;;;5.30;;
48613;SDS011;34408;51.426;5.444;2023-05-02T04:22:57;13.25;;;5.47;;
48613;SDS011;34408;51.426;5.444;2023-05-02T04:25:24;12.82;;;4.95;;
48613;SDS011;34408;51.426;5.444;2023-05-02T04:27:52;11.10;;;4.70;;
48613;SDS011;34408;51.426;5.444;2023-05-02T04:30:20;15.02;;;4.68;;
48613;SDS011;34408;51.426;5.444;2023-05-02T04:32:48;13.38;;;4.30;;
48613;SDS011;34408;51.426;5.444;2023-05-02T04:35:16;12.70;;;4.22;;
48613;SDS011;34408;51.426;5.444;2023-05-02T04:37:44;13.52;;;4.10;;
48613;SDS011;34408;51.426;5.444;2023-05-02T04:40:13;10.75;;;3.92;;
48613;SDS011;34408;51.426;5.444;2023-05-02T04:42:41;10.02;;;3.67;;
48613;SDS011;34408;51.426;5.444;2023-05-02T04:45:09;12.02;;;3.35;;
48613;SDS011;34408;51.426;5.444;2023-05-02T04:47:37;9.82;;;2.97;;
48613;SDS011;34408;51.426;5.444;2023-05-02T04:50:06;10.07;;;3.30;;
48613;SDS011;34408;51.426;5.444;2023-05-02T04:52:34;10.20;;;3.03;;
48613;SDS011;34408;51.426;5.444;2023-05-02T04:55:02;9.23;;;3.58;;
48613;SDS011;34408;51.426;5.444;2023-05-02T04:57:32;12.27;;;2.65;;
48613;SDS011;34408;51.426;5.444;2023-05-02T04:59:59;8.57;;;2.25;;
48613;SDS011;34408;51.426;5.444;2023-05-02T05:02:27;8.13;;;2.70;;
48613;SDS011;34408;51.426;5.444;2023-05-02T05:04:55;10.75;;;3.33;;
48613;SDS011;34408;51.426;5.444;2023-05-02T05:07:23;10.38;;;2.17;;
48613;SDS011;34408;51.426;5.444;2023-05-02T05:09:51;7.40;;;2.10;;
48613;SDS011;34408;51.426;5.444;2023-05-02T05:12:19;8.93;;;2.30;;
48613;SDS011;34408;51.426;5.444;2023-05-02T05:14:48;7.72;;;1.77;;
48613;SDS011;34408;51.426;5.444;2023-05-02T05:17:16;7.05;;;1.90;;
48613;SDS011;34408;51.426;5.444;2023-05-02T05:19:43;8.05;;;1.83;;
48613;SDS011;34408;51.426;5.444;2023-05-02T05:22:11;6.75;;;1.95;;
48613;SDS011;34408;51.426;5.444;2023-05-02T05:24:39;6.30;;;2.13;;
48613;SDS011;34408;51.426;5.444;2023-05-02T05:27:07;5.82;;;1.90;;
48613;SDS011;34408;51.426;5.444;2023-05-02T05:29:34;4.65;;;1.40;;
48613;SDS011;34408;51.426;5.444;2023-05-02T05:32:04;6.53;;;1.65;;
48613;SDS011;34408;51.426;5.444;2023-05-02T05:34:32;6.32;;;1.55;;
48613;SDS011;34408;51.426;5.444;2023-05-02T05:37:00;6.43;;;1.83;;
48613;SDS011;34408;51.426;5.444;2023-05-02T05:39:27;6.40;;;1.45;;
48613;SDS011;34408;51.426;5.444;2023-05-02T05:41:55;5.28;;;1.90;;
48613;SDS011;34408;51.426;5.444;2023-05-02T05:44:24;5.40;;;1.42;;
48613;SDS011;34408;51.426;5.444;2023-05-02T05:46:51;5.07;;;2.40;;
48613;SDS011;34408;51.426;5.444;2023-05-02T05:49:21;3.97;;;1.63;;
48613;SDS011;34408;51.426;5.444;2023-05-02T05:51:49;8.55;;;1.60;;
48613;SDS011;34408;51.426;5.444;2023-05-02T05:54:17;6.72;;;1.52;;
48613;SDS011;34408;51.426;5.444;2023-05-02T05:56:45;7.55;;;1.63;;
48613;SDS011;34408;51.426;5.444;2023-05-02T05:59:12;9.52;;;2.05;;
48613;SDS011;34408;51.426;5.444;2023-05-02T06:01:41;11.52;;;2.03;;
48613;SDS011;34408;51.426;5.444;2023-05-02T06:04:09;7.93;;;1.52;;
48613;SDS011;34408;51.426;5.444;2023-05-02T06:06:38;5.78;;;1.50;;
48613;SDS011;34408;51.426;5.444;2023-05-02T06:09:06;6.63;;;1.52;;
48613;SDS011;34408;51.426;5.444;2023-05-02T06:11:35;8.93;;;1.63;;
48613;SDS011;34408;51.426;5.444;2023-05-02T06:14:03;7.65;;;1.60;;
48613;SDS011;34408;51.426;5.444;2023-05-02T06:16:30;8.52;;;1.80;;
48613;SDS011;34408;51.426;5.444;2023-05-02T06:18:58;3.05;;;1.20;;
48613;SDS011;34408;51.426;5.444;2023-05-02T06:21:26;5.90;;;1.48;;
48613;SDS011;34408;51.426;5.444;2023-05-02T06:23:55;5.20;;;1.35;;
48613;SDS011;34408;51.426;5.444;2023-05-02T06:26:23;4.38;;;1.10;;
48613;SDS011;34408;51.426;5.444;2023-05-02T06:28:51;7.88;;;1.60;;
48613;SDS011;34408;51.426;5.444;2023-05-02T06:31:20;4.20;;;1.58;;
48613;SDS011;34408;51.426;5.444;2023-05-02T06:33:48;4.38;;;1.52;;
48613;SDS011;34408;51.426;5.444;2023-05-02T06:36:17;7.03;;;1.30;;
48613;SDS011;34408;51.426;5.444;2023-05-02T06:38:45;4.28;;;1.45;;
48613;SDS011;34408;51.426;5.444;2023-05-02T06:41:14;9.48;;;1.95;;
48613;SDS011;34408;51.426;5.444;2023-05-02T06:43:43;6.90;;;1.48;;
48613;SDS011;34408;51.426;5.444;2023-05-02T06:46:11;2.92;;;1.50;;
48613;SDS011;34408;51.426;5.444;2023-05-02T06:48:39;8.65;;;1.75;;
48613;SDS011;34408;51.426;5.444;2023-05-02T06:51:07;4.18;;;1.80;;
48613;SDS011;34408;51.426;5.444;2023-05-02T06:53:34;6.93;;;1.75;;
48613;SDS011;34408;51.426;5.444;2023-05-02T06:56:02;4.18;;;1.45;;
48613;SDS011;34408;51.426;5.444;2023-05-02T06:58:32;5.45;;;2.00;;
48613;SDS011;34408;51.426;5.444;2023-05-02T07:01:00;4.32;;;1.73;;
48613;SDS011;34408;51.426;5.444;2023-05-02T07:03:28;2.90;;;1.30;;
48613;SDS011;34408;51.426;5.444;2023-05-02T07:05:56;5.60;;;1.88;;
48613;SDS011;34408;51.426;5.444;2023-05-02T07:08:24;7.93;;;2.25;;
48613;SDS011;34408;51.426;5.444;2023-05-02T07:10:51;7.90;;;1.67;;
48613;SDS011;34408;51.426;5.444;2023-05-02T07:13:19;8.25;;;2.45;;
48613;SDS011;34408;51.426;5.444;2023-05-02T07:15:48;5.35;;;1.52;;
48613;SDS011;34408;51.426;5.444;2023-05-02T07:18:16;6.95;;;2.58;;
48613;SDS011;34408;51.426;5.444;2023-05-02T07:20:44;10.70;;;2.90;;
48613;SDS011;34408;51.426;5.444;2023-05-02T07:23:12;5.18;;;1.88;;
48613;SDS011;34408;51.426;5.444;2023-05-02T07:25:39;9.75;;;2.17;;
48613;SDS011;34408;51.426;5.444;2023-05-02T07:28:07;12.77;;;2.20;;
48613;SDS011;34408;51.426;5.444;2023-05-02T07:30:35;10.07;;;2.03;;
48613;SDS011;34408;51.426;5.444;2023-05-02T07:33:04;8.23;;;1.88;;
48613;SDS011;34408;51.426;5.444;2023-05-02T07:35:32;6.88;;;2.40;;
48613;SDS011;34408;51.426;5.444;2023-05-02T07:38:00;5.88;;;2.72;;
48613;SDS011;34408;51.426;5.444;2023-05-02T07:40:28;7.47;;;1.92;;
48613;SDS011;34408;51.426;5.444;2023-05-02T07:42:56;12.85;;;4.30;;
48613;SDS011;34408;51.426;5.444;2023-05-02T07:45:24;7.10;;;1.85;;
48613;SDS011;34408;51.426;5.444;2023-05-02T07:47:52;10.48;;;1.80;;
48613;SDS011;34408;51.426;5.444;2023-05-02T07:50:21;6.20;;;2.17;;
48613;SDS011;34408;51.426;5.444;2023-05-02T07:52:49;8.23;;;2.20;;
48613;SDS011;34408;51.426;5.444;2023-05-02T07:55:17;8.40;;;2.78;;
48613;SDS011;34408;51.426;5.444;2023-05-02T07:57:45;9.30;;;2.97;;
48613;SDS011;34408;51.426;5.444;2023-05-02T08:00:13;11.45;;;1.83;;
48613;SDS011;34408;51.426;5.444;2023-05-02T08:02:42;7.55;;;2.42;;
48613;SDS011;34408;51.426;5.444;2023-05-02T08:05:10;12.73;;;2.38;;
48613;SDS011;34408;51.426;5.444;2023-05-02T08:07:40;5.65;;;1.90;;
48613;SDS011;34408;51.426;5.444;2023-05-02T08:10:08;10.07;;;2.05;;
48613;SDS011;34408;51.426;5.444;2023-05-02T08:12:37;8.82;;;2.40;;
48613;SDS011;34408;51.426;5.444;2023-05-02T08:15:05;8.00;;;2.88;;
48613;SDS011;34408;51.426;5.444;2023-05-02T08:17:34;8.23;;;1.90;;
48613;SDS011;34408;51.426;5.444;2023-05-02T08:20:02;10.15;;;2.72;;
48613;SDS011;34408;51.426;5.444;2023-05-02T08:22:30;5.88;;;2.35;;
48613;SDS011;34408;51.426;5.444;2023-05-02T08:24:59;6.47;;;2.00;;
48613;SDS011;34408;51.426;5.444;2023-05-02T08:27:27;5.07;;;1.83;;
48613;SDS011;34408;51.426;5.444;2023-05-02T08:29:55;9.40;;;2.40;;
48613;SDS011;34408;51.426;5.444;2023-05-02T08:32:26;7.57;;;2.50;;
48613;SDS011;34408;51.426;5.444;2023-05-02T08:34:55;12.98;;;2.72;;
48613;SDS011;34408;51.426;5.444;2023-05-02T08:37:23;10.43;;;3.00;;
48613;SDS011;34408;51.426;5.444;2023-05-02T08:39:51;7.50;;;2.28;;
48613;SDS011;34408;51.426;5.444;2023-05-02T08:42:20;12.02;;;3.25;;
48613;SDS011;34408;51.426;5.444;2023-05-02T08:44:48;5.55;;;2.08;;
48613;SDS011;34408;51.426;5.444;2023-05-02T08:47:16;12.00;;;2.80;;
48613;SDS011;34408;51.426;5.444;2023-05-02T08:49:47;9.75;;;2.55;;
48613;SDS011;34408;51.426;5.444;2023-05-02T08:52:16;8.82;;;2.63;;
48613;SDS011;34408;51.426;5.444;2023-05-02T08:54:46;11.15;;;2.38;;
48613;SDS011;34408;51.426;5.444;2023-05-02T08:57:16;10.77;;;2.72;;
48613;SDS011;34408;51.426;5.444;2023-05-02T08:59:45;11.50;;;2.20;;
48613;SDS011;34408;51.426;5.444;2023-05-02T09:02:16;6.95;;;2.17;;
48613;SDS011;34408;51.426;5.444;2023-05-02T09:04:53;8.75;;;2.10;;
48613;SDS011;34408;51.426;5.444;2023-05-02T09:07:28;6.35;;;2.58;;
48613;SDS011;34408;51.426;5.444;2023-05-02T09:09:56;8.13;;;2.35;;
48613;SDS011;34408;51.426;5.444;2023-05-02T09:12:24;7.82;;;2.08;;
48613;SDS011;34408;51.426;5.444;2023-05-02T09:15:08;5.45;;;1.77;;
48613;SDS011;34408;51.426;5.444;2023-05-02T09:17:38;5.35;;;1.85;;
48613;SDS011;34408;51.426;5.444;2023-05-02T09:20:10;9.52;;;1.75;;
48613;SDS011;34408;51.426;5.444;2023-05-02T09:22:40;7.68;;;2.00;;
48613;SDS011;34408;51.426;5.444;2023-05-02T09:25:15;6.88;;;2.13;;
48613;SDS011;34408;51.426;5.444;2023-05-02T09:27:50;6.80;;;2.40;;
48613;SDS011;34408;51.426;5.444;2023-05-02T09:30:21;5.35;;;1.80;;
48613;SDS011;34408;51.426;5.444;2023-05-02T09:32:50;7.35;;;2.25;;
48613;SDS011;34408;51.426;5.444;2023-05-02T09:35:21;6.07;;;2.10;;
48613;SDS011;34408;51.426;5.444;2023-05-02T09:37:52;8.75;;;1.52;;
48613;SDS011;34408;51.426;5.444;2023-05-02T09:40:20;8.85;;;2.00;;
48613;SDS011;34408;51.426;5.444;2023-05-02T09:42:49;5.35;;;1.92;;
48613;SDS011;34408;51.426;5.444;2023-05-02T09:45:22;7.82;;;2.17;;
48613;SDS011;34408;51.426;5.444;2023-05-02T09:47:51;13.57;;;2.22;;
48613;SDS011;34408;51.426;5.444;2023-05-02T09:50:30;6.07;;;2.22;;
48613;SDS011;34408;51.426;5.444;2023-05-02T09:53:00;7.97;;;1.95;;
48613;SDS011;34408;51.426;5.444;2023-05-02T09:55:29;8.00;;;2.40;;
48613;SDS011;34408;51.426;5.444;2023-05-02T09:57:57;4.90;;;1.85;;
48613;SDS011;34408;51.426;5.444;2023-05-02T10:00:40;10.90;;;2.35;;
48613;SDS011;34408;51.426;5.444;2023-05-02T10:03:09;10.18;;;2.10;;
48613;SDS011;34408;51.426;5.444;2023-05-02T10:05:43;10.55;;;2.17;;
48613;SDS011;34408;51.426;5.444;2023-05-02T10:08:12;5.90;;;1.83;;
48613;SDS011;34408;51.426;5.444;2023-05-02T10:10:42;4.93;;;1.75;;
48613;SDS011;34408;51.426;5.444;2023-05-02T10:13:13;5.07;;;1.85;;
48613;SDS011;34408;51.426;5.444;2023-05-02T10:15:48;9.60;;;2.60;;
48613;SDS011;34408;51.426;5.444;2023-05-02T10:18:21;11.15;;;1.90;;
48613;SDS011;34408;51.426;5.444;2023-05-02T10:20:57;6.40;;;2.45;;
48613;SDS011;34408;51.426;5.444;2023-05-02T10:23:26;5.15;;;2.00;;
48613;SDS011;34408;51.426;5.444;2023-05-02T10:25:56;8.27;;;1.83;;
48613;SDS011;34408;51.426;5.444;2023-05-02T10:28:25;4.03;;;1.83;;
48613;SDS011;34408;51.426;5.444;2023-05-02T10:30:55;11.48;;;2.42;;
48613;SDS011;34408;51.426;5.444;2023-05-02T10:33:26;6.57;;;2.00;;
48613;SDS011;34408;51.426;5.444;2023-05-02T10:35:56;7.20;;;3.13;;
48613;SDS011;34408;51.426;5.444;2023-05-02T10:38:24;7.78;;;2.13;;
48613;SDS011;34408;51.426;5.444;2023-05-02T10:40:54;6.32;;;1.85;;
48613;SDS011;34408;51.426;5.444;2023-05-02T10:43:25;5.82;;;2.03;;
48613;SDS011;34408;51.426;5.444;2023-05-02T10:46:01;9.88;;;2.22;;
48613;SDS011;34408;51.426;5.444;2023-05-02T10:48:30;8.07;;;2.00;;
48613;SDS011;34408;51.426;5.444;2023-05-02T10:50:58;7.43;;;2.08;;
48613;SDS011;34408;51.426;5.444;2023-05-02T10:53:28;6.72;;;1.83;;
48613;SDS011;34408;51.426;5.444;2023-05-02T10:56:13;11.32;;;2.25;;
48613;SDS011;34408;51.426;5.444;2023-05-02T10:58:43;5.88;;;1.70;;
48613;SDS011;34408;51.426;5.444;2023-05-02T11:04:09;7.55;;;2.17;;
48613;SDS011;34408;51.426;5.444;2023-05-02T11:09:38;7.78;;;2.00;;
48613;SDS011;34408;51.426;5.444;2023-05-02T11:12:06;9.73;;;3.08;;
48613;SDS011;34408;51.426;5.444;2023-05-02T11:14:41;7.55;;;2.13;;
48613;SDS011;34408;51.426;5.444;2023-05-02T11:17:17;6.63;;;2.22;;
48613;SDS011;34408;51.426;5.444;2023-05-02T11:22:56;7.25;;;1.98;;
48613;SDS011;34408;51.426;5.444;2023-05-02T11:25:36;7.18;;;2.22;;
48613;SDS011;34408;51.426;5.444;2023-05-02T11:28:06;7.05;;;1.92;;
48613;SDS011;34408;51.426;5.444;2023-05-02T11:30:39;7.10;;;1.83;;
48613;SDS011;34408;51.426;5.444;2023-05-02T11:33:15;5.60;;;2.10;;
48613;SDS011;34408;51.426;5.444;2023-05-02T11:35:46;8.75;;;2.40;;
48613;SDS011;34408;51.426;5.444;2023-05-02T11:38:15;7.82;;;2.20;;
48613;SDS011;34408;51.426;5.444;2023-05-02T11:40:49;7.18;;;2.28;;
48613;SDS011;34408;51.426;5.444;2023-05-02T11:43:18;4.72;;;1.88;;
48613;SDS011;34408;51.426;5.444;2023-05-02T11:45:47;5.03;;;2.08;;
48613;SDS011;34408;51.426;5.444;2023-05-02T11:48:17;9.27;;;2.13;;
48613;SDS011;34408;51.426;5.444;2023-05-02T11:50:47;5.38;;;1.70;;
48613;SDS011;34408;51.426;5.444;2023-05-02T11:53:17;7.68;;;1.88;;
48613;SDS011;34408;51.426;5.444;2023-05-02T11:55:48;6.35;;;2.00;;
48613;SDS011;34408;51.426;5.444;2023-05-02T11:58:18;9.68;;;2.25;;
48613;SDS011;34408;51.426;5.444;2023-05-02T12:00:47;8.25;;;2.38;;
48613;SDS011;34408;51.426;5.444;2023-05-02T12:03:25;6.22;;;1.83;;
48613;SDS011;34408;51.426;5.444;2023-05-02T12:05:55;7.95;;;2.60;;
48613;SDS011;34408;51.426;5.444;2023-05-02T12:08:24;7.00;;;2.10;;
48613;SDS011;34408;51.426;5.444;2023-05-02T12:10:54;11.43;;;2.50;;
48613;SDS011;34408;51.426;5.444;2023-05-02T12:13:23;7.93;;;2.67;;
48613;SDS011;34408;51.426;5.444;2023-05-02T12:15:52;4.15;;;1.88;;
48613;SDS011;34408;51.426;5.444;2023-05-02T12:18:22;6.63;;;2.33;;
48613;SDS011;34408;51.426;5.444;2023-05-02T12:20:52;5.70;;;2.08;;
48613;SDS011;34408;51.426;5.444;2023-05-02T12:23:22;6.70;;;2.60;;
48613;SDS011;34408;51.426;5.444;2023-05-02T12:25:52;4.40;;;1.95;;
48613;SDS011;34408;51.426;5.444;2023-05-02T12:28:20;6.55;;;1.98;;
48613;SDS011;34408;51.426;5.444;2023-05-02T12:30:49;7.15;;;2.20;;
48613;SDS011;34408;51.426;5.444;2023-05-02T12:33:17;7.60;;;2.28;;
48613;SDS011;34408;51.426;5.444;2023-05-02T12:35:47;7.20;;;2.25;;
48613;SDS011;34408;51.426;5.444;2023-05-02T12:38:15;7.07;;;1.77;;
48613;SDS011;34408;51.426;5.444;2023-05-02T12:40:46;6.70;;;1.67;;
48613;SDS011;34408;51.426;5.444;2023-05-02T12:43:15;12.10;;;2.30;;
48613;SDS011;34408;51.426;5.444;2023-05-02T12:45:43;5.07;;;1.70;;
48613;SDS011;34408;51.426;5.444;2023-05-02T12:48:17;5.35;;;1.98;;
48613;SDS011;34408;51.426;5.444;2023-05-02T12:50:48;12.63;;;2.00;;
48613;SDS011;34408;51.426;5.444;2023-05-02T12:53:16;8.43;;;1.88;;
48613;SDS011;34408;51.426;5.444;2023-05-02T12:55:44;6.80;;;2.08;;
48613;SDS011;34408;51.426;5.444;2023-05-02T12:58:13;10.75;;;3.00;;
48613;SDS011;34408;51.426;5.444;2023-05-02T13:00:41;6.28;;;2.13;;
48613;SDS011;34408;51.426;5.444;2023-05-02T13:03:12;7.70;;;2.38;;
48613;SDS011;34408;51.426;5.444;2023-05-02T13:05:40;5.78;;;2.17;;
48613;SDS011;34408;51.426;5.444;2023-05-02T13:08:09;5.85;;;2.10;;
48613;SDS011;34408;51.426;5.444;2023-05-02T13:10:37;6.53;;;1.73;;
48613;SDS011;34408;51.426;5.444;2023-05-02T13:13:04;5.90;;;1.73;;
48613;SDS011;34408;51.426;5.444;2023-05-02T13:15:33;6.00;;;1.95;;
48613;SDS011;34408;51.426;5.444;2023-05-02T13:18:00;6.60;;;1.50;;
48613;SDS011;34408;51.426;5.444;2023-05-02T13:20:28;5.45;;;1.50;;
48613;SDS011;34408;51.426;5.444;2023-05-02T13:22:56;5.93;;;1.75;;
48613;SDS011;34408;51.426;5.444;2023-05-02T13:25:25;7.72;;;2.05;;
48613;SDS011;34408;51.426;5.444;2023-05-02T13:27:53;4.68;;;1.98;;
48613;SDS011;34408;51.426;5.444;2023-05-02T13:30:21;4.50;;;1.83;;
48613;SDS011;34408;51.426;5.444;2023-05-02T13:32:49;4.80;;;1.70;;
48613;SDS011;34408;51.426;5.444;2023-05-02T13:35:17;7.65;;;2.10;;
48613;SDS011;34408;51.426;5.444;2023-05-02T13:37:44;6.97;;;2.05;;
48613;SDS011;34408;51.426;5.444;2023-05-02T13:40:13;9.15;;;2.10;;
48613;SDS011;34408;51.426;5.444;2023-05-02T13:42:42;8.20;;;2.08;;
48613;SDS011;34408;51.426;5.444;2023-05-02T13:45:10;6.43;;;2.10;;
48613;SDS011;34408;51.426;5.444;2023-05-02T13:47:38;7.15;;;1.83;;
48613;SDS011;34408;51.426;5.444;2023-05-02T13:50:07;12.05;;;2.45;;
48613;SDS011;34408;51.426;5.444;2023-05-02T13:52:35;8.77;;;2.10;;
48613;SDS011;34408;51.426;5.444;2023-05-02T13:55:03;7.20;;;1.77;;
48613;SDS011;34408;51.426;5.444;2023-05-02T13:57:31;7.07;;;2.00;;
48613;SDS011;34408;51.426;5.444;2023-05-02T14:00:00;5.72;;;2.10;;
48613;SDS011;34408;51.426;5.444;2023-05-02T14:02:30;6.68;;;2.10;;
48613;SDS011;34408;51.426;5.444;2023-05-02T14:04:58;6.78;;;2.30;;
48613;SDS011;34408;51.426;5.444;2023-05-02T14:07:25;4.75;;;1.60;;
48613;SDS011;34408;51.426;5.444;2023-05-02T14:09:53;9.48;;;1.70;;
48613;SDS011;34408;51.426;5.444;2023-05-02T14:12:21;4.43;;;1.83;;
48613;SDS011;34408;51.426;5.444;2023-05-02T14:14:49;4.90;;;1.95;;
48613;SDS011;34408;51.426;5.444;2023-05-02T14:17:18;6.50;;;1.85;;
48613;SDS011;34408;51.426;5.444;2023-05-02T14:19:46;4.45;;;1.90;;
48613;SDS011;34408;51.426;5.444;2023-05-02T14:22:14;4.60;;;1.50;;
48613;SDS011;34408;51.426;5.444;2023-05-02T14:24:42;8.30;;;1.70;;
48613;SDS011;34408;51.426;5.444;2023-05-02T14:27:09;6.00;;;1.80;;
48613;SDS011;34408;51.426;5.444;2023-05-02T14:29:43;6.25;;;1.58;;
48613;SDS011;34408;51.426;5.444;2023-05-02T14:32:11;4.93;;;1.98;;
48613;SDS011;34408;51.426;5.444;2023-05-02T14:34:40;5.30;;;1.83;;
48613;SDS011;34408;51.426;5.444;2023-05-02T14:37:08;2.97;;;1.67;;
48613;SDS011;34408;51.426;5.444;2023-05-02T14:39:36;6.53;;;1.58;;
48613;SDS011;34408;51.426;5.444;2023-05-02T14:42:05;5.40;;;1.77;;
48613;SDS011;34408;51.426;5.444;2023-05-02T14:44:33;7.47;;;2.05;;
48613;SDS011;34408;51.426;5.444;2023-05-02T14:47:00;7.53;;;1.80;;
48613;SDS011;34408;51.426;5.444;2023-05-02T14:49:28;5.32;;;2.15;;
48613;SDS011;34408;51.426;5.444;2023-05-02T14:51:57;5.43;;;1.65;;
48613;SDS011;34408;51.426;5.444;2023-05-02T14:54:25;3.88;;;1.98;;
48613;SDS011;34408;51.426;5.444;2023-05-02T14:56:53;5.80;;;1.83;;
48613;SDS011;34408;51.426;5.444;2023-05-02T14:59:22;5.15;;;2.05;;
48613;SDS011;34408;51.426;5.444;2023-05-02T15:01:50;6.32;;;1.98;;
48613;SDS011;34408;51.426;5.444;2023-05-02T15:04:18;8.73;;;2.10;;